sensor_id;sensor_type;location;lat;lon;timestamp;P1;durP1;ratioP1;P2;durP2;ratioP2
12425;SDS011;6277;49.824;9.562;2024-01-07T00:01:26;4.40;;;4.00;;
12425;SDS011;6277;49.824;9.562;2024-01-07T00:03:51;7.30;;;4.57;;
12425;SDS011;6277;49.824;9.562;2024-01-07T00:06:17;4.95;;;4.20;;
12425;SDS011;6277;49.824;9.562;2024-01-07T00:08:43;6.45;;;4.38;;
12425;SDS011;6277;49.824;9.562;2024-01-07T00:11:08;6.50;;;4.30;;
12425;SDS011;6277;49.824;9.562;2024-01-07T00:13:34;4.78;;;3.78;;
12425;SDS011;6277;49.824;9.562;2024-01-07T00:16:00;4.60;;;3.67;;
12425;SDS011;6277;49.824;9.562;2024-01-07T00:18:26;4.85;;;3.80;;
12425;SDS011;6277;49.824;9.562;2024-01-07T00:20:52;3.70;;;3.33;;
12425;SDS011;6277;49.824;9.562;2024-01-07T00:23:18;4.03;;;3.40;;
12425;SDS011;6277;49.824;9.562;2024-01-07T00:25:45;4.72;;;3.50;;
12425;SDS011;6277;49.824;9.562;2024-01-07T00:28:11;5.00;;;3.80;;
12425;SDS011;6277;49.824;9.562;2024-01-07T00:30:37;4.40;;;3.60;;
12425;SDS011;6277;49.824;9.562;2024-01-07T00:33:03;5.00;;;3.65;;
12425;SDS011;6277;49.824;9.562;2024-01-07T00:35:28;6.35;;;3.90;;
12425;SDS011;6277;49.824;9.562;2024-01-07T00:37:54;4.53;;;3.42;;
12425;SDS011;6277;49.824;9.562;2024-01-07T00:40:21;5.82;;;3.80;;
12425;SDS011;6277;49.824;9.562;2024-01-07T00:42:47;7.80;;;4.30;;
12425;SDS011;6277;49.824;9.562;2024-01-07T00:45:13;5.40;;;3.88;;
12425;SDS011;6277;49.824;9.562;2024-01-07T00:47:38;5.85;;;3.83;;
12425;SDS011;6277;49.824;9.562;2024-01-07T00:50:04;6.13;;;4.13;;
12425;SDS011;6277;49.824;9.562;2024-01-07T00:52:30;4.78;;;4.03;;
12425;SDS011;6277;49.824;9.562;2024-01-07T00:54:55;5.85;;;4.47;;
12425;SDS011;6277;49.824;9.562;2024-01-07T00:57:21;5.38;;;4.53;;
12425;SDS011;6277;49.824;9.562;2024-01-07T00:59:47;6.80;;;4.40;;
12425;SDS011;6277;49.824;9.562;2024-01-07T01:02:12;6.88;;;4.43;;
12425;SDS011;6277;49.824;9.562;2024-01-07T01:04:38;6.40;;;4.43;;
12425;SDS011;6277;49.824;9.562;2024-01-07T01:07:05;7.40;;;4.80;;
12425;SDS011;6277;49.824;9.562;2024-01-07T01:09:30;6.28;;;4.63;;
12425;SDS011;6277;49.824;9.562;2024-01-07T01:11:56;7.68;;;4.55;;
12425;SDS011;6277;49.824;9.562;2024-01-07T01:14:21;7.05;;;4.90;;
12425;SDS011;6277;49.824;9.562;2024-01-07T01:16:47;5.47;;;4.57;;
12425;SDS011;6277;49.824;9.562;2024-01-07T01:19:12;6.15;;;4.20;;
12425;SDS011;6277;49.824;9.562;2024-01-07T01:21:38;4.70;;;3.95;;
12425;SDS011;6277;49.824;9.562;2024-01-07T01:24:03;6.57;;;4.40;;
12425;SDS011;6277;49.824;9.562;2024-01-07T01:26:29;4.60;;;4.10;;
12425;SDS011;6277;49.824;9.562;2024-01-07T01:28:54;5.53;;;4.63;;
12425;SDS011;6277;49.824;9.562;2024-01-07T01:31:20;6.35;;;4.28;;
12425;SDS011;6277;49.824;9.562;2024-01-07T01:33:45;7.20;;;4.95;;
12425;SDS011;6277;49.824;9.562;2024-01-07T01:36:11;5.97;;;4.90;;
12425;SDS011;6277;49.824;9.562;2024-01-07T01:38:36;7.40;;;4.70;;
12425;SDS011;6277;49.824;9.562;2024-01-07T01:41:02;6.93;;;4.30;;
12425;SDS011;6277;49.824;9.562;2024-01-07T01:43:28;6.43;;;4.68;;
12425;SDS011;6277;49.824;9.562;2024-01-07T01:45:54;7.18;;;4.88;;
12425;SDS011;6277;49.824;9.562;2024-01-07T01:48:22;6.07;;;5.05;;
12425;SDS011;6277;49.824;9.562;2024-01-07T01:50:48;7.35;;;5.22;;
12425;SDS011;6277;49.824;9.562;2024-01-07T01:53:15;6.50;;;5.18;;
12425;SDS011;6277;49.824;9.562;2024-01-07T01:55:43;6.20;;;4.82;;
12425;SDS011;6277;49.824;9.562;2024-01-07T01:58:09;6.15;;;4.70;;
12425;SDS011;6277;49.824;9.562;2024-01-07T02:00:35;6.85;;;5.10;;
12425;SDS011;6277;49.824;9.562;2024-01-07T02:03:00;7.93;;;5.00;;
12425;SDS011;6277;49.824;9.562;2024-01-07T02:05:26;6.03;;;4.95;;
12425;SDS011;6277;49.824;9.562;2024-01-07T02:07:52;6.32;;;5.00;;
12425;SDS011;6277;49.824;9.562;2024-01-07T02:10:19;7.13;;;4.78;;
12425;SDS011;6277;49.824;9.562;2024-01-07T02:12:45;7.20;;;4.97;;
12425;SDS011;6277;49.824;9.562;2024-01-07T02:15:11;6.28;;;4.95;;
12425;SDS011;6277;49.824;9.562;2024-01-07T02:17:36;6.85;;;5.25;;
12425;SDS011;6277;49.824;9.562;2024-01-07T02:20:02;7.63;;;5.00;;
12425;SDS011;6277;49.824;9.562;2024-01-07T02:22:28;6.50;;;4.85;;
12425;SDS011;6277;49.824;9.562;2024-01-07T02:24:53;6.82;;;4.85;;
12425;SDS011;6277;49.824;9.562;2024-01-07T02:27:19;6.00;;;4.53;;
12425;SDS011;6277;49.824;9.562;2024-01-07T02:29:44;6.78;;;5.10;;
12425;SDS011;6277;49.824;9.562;2024-01-07T02:32:10;7.05;;;5.35;;
12425;SDS011;6277;49.824;9.562;2024-01-07T02:34:35;5.47;;;4.68;;
12425;SDS011;6277;49.824;9.562;2024-01-07T02:37:01;8.02;;;5.68;;
12425;SDS011;6277;49.824;9.562;2024-01-07T02:39:26;6.40;;;4.82;;
12425;SDS011;6277;49.824;9.562;2024-01-07T02:41:52;7.15;;;5.57;;
12425;SDS011;6277;49.824;9.562;2024-01-07T02:44:17;5.95;;;5.22;;
12425;SDS011;6277;49.824;9.562;2024-01-07T02:46:43;6.85;;;5.60;;
12425;SDS011;6277;49.824;9.562;2024-01-07T02:49:09;6.70;;;5.47;;
12425;SDS011;6277;49.824;9.562;2024-01-07T02:51:34;6.60;;;5.63;;
12425;SDS011;6277;49.824;9.562;2024-01-07T02:54:00;7.28;;;5.60;;
12425;SDS011;6277;49.824;9.562;2024-01-07T02:56:25;6.90;;;5.47;;
12425;SDS011;6277;49.824;9.562;2024-01-07T02:58:51;6.90;;;5.50;;
12425;SDS011;6277;49.824;9.562;2024-01-07T03:01:16;6.22;;;5.30;;
12425;SDS011;6277;49.824;9.562;2024-01-07T03:03:42;7.28;;;5.50;;
12425;SDS011;6277;49.824;9.562;2024-01-07T03:06:07;7.68;;;5.47;;
12425;SDS011;6277;49.824;9.562;2024-01-07T03:08:33;8.95;;;5.63;;
12425;SDS011;6277;49.824;9.562;2024-01-07T03:11:03;8.25;;;5.60;;
12425;SDS011;6277;49.824;9.562;2024-01-07T03:13:30;8.05;;;5.45;;
12425;SDS011;6277;49.824;9.562;2024-01-07T03:15:55;7.95;;;5.90;;
12425;SDS011;6277;49.824;9.562;2024-01-07T03:18:21;7.38;;;5.50;;
12425;SDS011;6277;49.824;9.562;2024-01-07T03:20:46;8.10;;;5.65;;
12425;SDS011;6277;49.824;9.562;2024-01-07T03:23:12;7.75;;;5.78;;
12425;SDS011;6277;49.824;9.562;2024-01-07T03:25:37;7.13;;;5.63;;
12425;SDS011;6277;49.824;9.562;2024-01-07T03:28:03;7.32;;;5.57;;
12425;SDS011;6277;49.824;9.562;2024-01-07T03:30:28;7.65;;;5.85;;
12425;SDS011;6277;49.824;9.562;2024-01-07T03:32:54;6.53;;;5.78;;
12425;SDS011;6277;49.824;9.562;2024-01-07T03:35:19;7.25;;;5.63;;
12425;SDS011;6277;49.824;9.562;2024-01-07T03:37:46;8.02;;;6.63;;
12425;SDS011;6277;49.824;9.562;2024-01-07T03:40:12;7.60;;;5.88;;
12425;SDS011;6277;49.824;9.562;2024-01-07T03:42:37;7.80;;;5.97;;
12425;SDS011;6277;49.824;9.562;2024-01-07T03:45:03;8.05;;;6.07;;
12425;SDS011;6277;49.824;9.562;2024-01-07T03:47:30;7.68;;;5.90;;
12425;SDS011;6277;49.824;9.562;2024-01-07T03:49:56;9.43;;;6.75;;
12425;SDS011;6277;49.824;9.562;2024-01-07T03:52:22;9.05;;;5.93;;
12425;SDS011;6277;49.824;9.562;2024-01-07T03:54:47;8.50;;;6.25;;
12425;SDS011;6277;49.824;9.562;2024-01-07T03:57:13;8.82;;;5.90;;
12425;SDS011;6277;49.824;9.562;2024-01-07T03:59:38;8.77;;;6.45;;
12425;SDS011;6277;49.824;9.562;2024-01-07T04:02:04;7.57;;;6.32;;
12425;SDS011;6277;49.824;9.562;2024-01-07T04:04:29;8.60;;;6.22;;
12425;SDS011;6277;49.824;9.562;2024-01-07T04:06:55;9.80;;;6.82;;
12425;SDS011;6277;49.824;9.562;2024-01-07T04:09:21;8.13;;;5.63;;
12425;SDS011;6277;49.824;9.562;2024-01-07T04:11:46;9.00;;;5.97;;
12425;SDS011;6277;49.824;9.562;2024-01-07T04:14:13;9.05;;;6.05;;
12425;SDS011;6277;49.824;9.562;2024-01-07T04:16:40;7.40;;;5.50;;
12425;SDS011;6277;49.824;9.562;2024-01-07T04:19:05;7.10;;;5.75;;
12425;SDS011;6277;49.824;9.562;2024-01-07T04:21:31;8.20;;;6.03;;
12425;SDS011;6277;49.824;9.562;2024-01-07T04:23:56;7.82;;;6.07;;
12425;SDS011;6277;49.824;9.562;2024-01-07T04:26:22;7.38;;;5.60;;
12425;SDS011;6277;49.824;9.562;2024-01-07T04:28:47;8.02;;;5.95;;
12425;SDS011;6277;49.824;9.562;2024-01-07T04:31:13;6.18;;;5.03;;
12425;SDS011;6277;49.824;9.562;2024-01-07T04:33:39;6.10;;;4.95;;
12425;SDS011;6277;49.824;9.562;2024-01-07T04:36:04;7.70;;;5.20;;
12425;SDS011;6277;49.824;9.562;2024-01-07T04:38:30;9.00;;;5.65;;
12425;SDS011;6277;49.824;9.562;2024-01-07T04:40:56;8.85;;;5.45;;
12425;SDS011;6277;49.824;9.562;2024-01-07T04:43:21;5.82;;;4.80;;
12425;SDS011;6277;49.824;9.562;2024-01-07T04:45:47;7.80;;;5.38;;
12425;SDS011;6277;49.824;9.562;2024-01-07T04:48:13;6.68;;;5.22;;
12425;SDS011;6277;49.824;9.562;2024-01-07T04:50:41;8.07;;;5.60;;
12425;SDS011;6277;49.824;9.562;2024-01-07T04:53:07;7.70;;;5.00;;
12425;SDS011;6277;49.824;9.562;2024-01-07T04:55:33;6.57;;;5.63;;
12425;SDS011;6277;49.824;9.562;2024-01-07T04:57:59;7.20;;;5.75;;
12425;SDS011;6277;49.824;9.562;2024-01-07T05:00:25;7.95;;;6.13;;
12425;SDS011;6277;49.824;9.562;2024-01-07T05:02:50;8.38;;;5.72;;
12425;SDS011;6277;49.824;9.562;2024-01-07T05:05:16;7.80;;;5.60;;
12425;SDS011;6277;49.824;9.562;2024-01-07T05:07:41;7.43;;;4.85;;
12425;SDS011;6277;49.824;9.562;2024-01-07T05:10:07;7.60;;;5.28;;
12425;SDS011;6277;49.824;9.562;2024-01-07T05:12:33;6.47;;;5.38;;
12425;SDS011;6277;49.824;9.562;2024-01-07T05:14:58;6.65;;;4.97;;
12425;SDS011;6277;49.824;9.562;2024-01-07T05:17:24;6.95;;;5.00;;
12425;SDS011;6277;49.824;9.562;2024-01-07T05:19:49;6.00;;;4.50;;
12425;SDS011;6277;49.824;9.562;2024-01-07T05:22:15;7.15;;;5.30;;
12425;SDS011;6277;49.824;9.562;2024-01-07T05:24:40;7.82;;;5.43;;
12425;SDS011;6277;49.824;9.562;2024-01-07T05:27:06;7.57;;;5.30;;
12425;SDS011;6277;49.824;9.562;2024-01-07T05:29:32;7.00;;;5.00;;
12425;SDS011;6277;49.824;9.562;2024-01-07T05:32:00;7.68;;;5.07;;
12425;SDS011;6277;49.824;9.562;2024-01-07T05:34:27;7.72;;;5.40;;
12425;SDS011;6277;49.824;9.562;2024-01-07T05:36:53;6.95;;;4.80;;
12425;SDS011;6277;49.824;9.562;2024-01-07T05:39:19;6.93;;;5.30;;
12425;SDS011;6277;49.824;9.562;2024-01-07T05:41:44;6.07;;;4.80;;
12425;SDS011;6277;49.824;9.562;2024-01-07T05:44:11;8.07;;;5.13;;
12425;SDS011;6277;49.824;9.562;2024-01-07T05:46:40;7.60;;;5.45;;
12425;SDS011;6277;49.824;9.562;2024-01-07T05:49:06;7.32;;;4.72;;
12425;SDS011;6277;49.824;9.562;2024-01-07T05:51:32;6.55;;;4.75;;
12425;SDS011;6277;49.824;9.562;2024-01-07T05:53:57;7.07;;;5.05;;
12425;SDS011;6277;49.824;9.562;2024-01-07T05:56:23;5.85;;;4.40;;
12425;SDS011;6277;49.824;9.562;2024-01-07T05:58:48;6.97;;;4.10;;
12425;SDS011;6277;49.824;9.562;2024-01-07T06:01:20;6.80;;;4.38;;
12425;SDS011;6277;49.824;9.562;2024-01-07T06:03:46;5.35;;;4.38;;
12425;SDS011;6277;49.824;9.562;2024-01-07T06:06:15;6.13;;;4.05;;
12425;SDS011;6277;49.824;9.562;2024-01-07T06:08:41;5.97;;;3.85;;
12425;SDS011;6277;49.824;9.562;2024-01-07T06:11:07;6.22;;;3.70;;
12425;SDS011;6277;49.824;9.562;2024-01-07T06:13:33;5.07;;;3.40;;
12425;SDS011;6277;49.824;9.562;2024-01-07T06:15:59;5.20;;;3.78;;
12425;SDS011;6277;49.824;9.562;2024-01-07T06:18:24;4.78;;;3.55;;
12425;SDS011;6277;49.824;9.562;2024-01-07T06:20:50;5.30;;;3.65;;
12425;SDS011;6277;49.824;9.562;2024-01-07T06:23:15;4.65;;;3.50;;
12425;SDS011;6277;49.824;9.562;2024-01-07T06:25:41;3.88;;;2.92;;
12425;SDS011;6277;49.824;9.562;2024-01-07T06:28:06;4.15;;;3.28;;
12425;SDS011;6277;49.824;9.562;2024-01-07T06:30:32;4.97;;;3.42;;
12425;SDS011;6277;49.824;9.562;2024-01-07T06:32:58;4.90;;;3.70;;
12425;SDS011;6277;49.824;9.562;2024-01-07T06:35:24;5.50;;;4.03;;
12425;SDS011;6277;49.824;9.562;2024-01-07T06:37:49;5.45;;;4.10;;
12425;SDS011;6277;49.824;9.562;2024-01-07T06:40:15;5.90;;;4.00;;
12425;SDS011;6277;49.824;9.562;2024-01-07T06:42:40;5.13;;;3.80;;
12425;SDS011;6277;49.824;9.562;2024-01-07T06:45:07;4.70;;;3.90;;
12425;SDS011;6277;49.824;9.562;2024-01-07T06:47:33;5.35;;;3.85;;
12425;SDS011;6277;49.824;9.562;2024-01-07T06:49:58;5.13;;;3.70;;
12425;SDS011;6277;49.824;9.562;2024-01-07T06:52:24;5.55;;;4.10;;
12425;SDS011;6277;49.824;9.562;2024-01-07T06:54:49;5.47;;;4.20;;
12425;SDS011;6277;49.824;9.562;2024-01-07T06:57:15;5.47;;;3.72;;
12425;SDS011;6277;49.824;9.562;2024-01-07T06:59:40;5.38;;;3.90;;
12425;SDS011;6277;49.824;9.562;2024-01-07T07:02:06;5.25;;;3.60;;
12425;SDS011;6277;49.824;9.562;2024-01-07T07:04:31;5.05;;;3.72;;
12425;SDS011;6277;49.824;9.562;2024-01-07T07:06:57;5.32;;;3.80;;
12425;SDS011;6277;49.824;9.562;2024-01-07T07:09:22;4.80;;;3.42;;
12425;SDS011;6277;49.824;9.562;2024-01-07T07:11:48;5.38;;;3.50;;
12425;SDS011;6277;49.824;9.562;2024-01-07T07:14:14;4.13;;;3.33;;
12425;SDS011;6277;49.824;9.562;2024-01-07T07:16:39;5.00;;;3.30;;
12425;SDS011;6277;49.824;9.562;2024-01-07T07:19:05;4.70;;;3.42;;
12425;SDS011;6277;49.824;9.562;2024-01-07T07:21:31;4.85;;;3.30;;
12425;SDS011;6277;49.824;9.562;2024-01-07T07:23:56;5.10;;;3.22;;
12425;SDS011;6277;49.824;9.562;2024-01-07T07:26:22;5.22;;;3.38;;
12425;SDS011;6277;49.824;9.562;2024-01-07T07:28:48;4.40;;;3.08;;
12425;SDS011;6277;49.824;9.562;2024-01-07T07:31:13;4.55;;;3.30;;
12425;SDS011;6277;49.824;9.562;2024-01-07T07:33:39;5.10;;;3.30;;
12425;SDS011;6277;49.824;9.562;2024-01-07T07:36:05;4.85;;;3.13;;
12425;SDS011;6277;49.824;9.562;2024-01-07T07:38:31;4.97;;;3.65;;
12425;SDS011;6277;49.824;9.562;2024-01-07T07:40:57;4.88;;;3.15;;
12425;SDS011;6277;49.824;9.562;2024-01-07T07:43:23;4.80;;;3.33;;
12425;SDS011;6277;49.824;9.562;2024-01-07T07:45:49;4.43;;;3.00;;
12425;SDS011;6277;49.824;9.562;2024-01-07T07:48:15;5.15;;;3.58;;
12425;SDS011;6277;49.824;9.562;2024-01-07T07:50:41;4.88;;;3.53;;
12425;SDS011;6277;49.824;9.562;2024-01-07T07:53:07;4.95;;;3.50;;
12425;SDS011;6277;49.824;9.562;2024-01-07T07:55:33;4.60;;;3.50;;
12425;SDS011;6277;49.824;9.562;2024-01-07T07:57:58;4.72;;;3.50;;
12425;SDS011;6277;49.824;9.562;2024-01-07T08:00:24;3.97;;;3.22;;
12425;SDS011;6277;49.824;9.562;2024-01-07T08:02:49;4.25;;;3.33;;
12425;SDS011;6277;49.824;9.562;2024-01-07T08:05:15;4.97;;;3.80;;
12425;SDS011;6277;49.824;9.562;2024-01-07T08:07:41;5.25;;;3.63;;
12425;SDS011;6277;49.824;9.562;2024-01-07T08:10:07;4.65;;;3.40;;
12425;SDS011;6277;49.824;9.562;2024-01-07T08:12:33;5.90;;;4.20;;
12425;SDS011;6277;49.824;9.562;2024-01-07T08:14:59;7.15;;;4.25;;
12425;SDS011;6277;49.824;9.562;2024-01-07T08:17:24;6.30;;;4.07;;
12425;SDS011;6277;49.824;9.562;2024-01-07T08:19:50;5.75;;;3.90;;
12425;SDS011;6277;49.824;9.562;2024-01-07T08:22:16;6.10;;;4.47;;
12425;SDS011;6277;49.824;9.562;2024-01-07T08:24:41;5.75;;;4.28;;
12425;SDS011;6277;49.824;9.562;2024-01-07T08:27:07;5.30;;;4.00;;
12425;SDS011;6277;49.824;9.562;2024-01-07T08:29:33;4.65;;;3.63;;
12425;SDS011;6277;49.824;9.562;2024-01-07T08:31:58;5.18;;;3.90;;
12425;SDS011;6277;49.824;9.562;2024-01-07T08:34:24;5.93;;;4.20;;
12425;SDS011;6277;49.824;9.562;2024-01-07T08:36:50;5.18;;;3.50;;
12425;SDS011;6277;49.824;9.562;2024-01-07T08:39:15;5.18;;;3.92;;
12425;SDS011;6277;49.824;9.562;2024-01-07T08:41:41;6.75;;;4.40;;
12425;SDS011;6277;49.824;9.562;2024-01-07T08:44:07;4.93;;;3.65;;
12425;SDS011;6277;49.824;9.562;2024-01-07T08:46:35;5.43;;;4.22;;
12425;SDS011;6277;49.824;9.562;2024-01-07T08:49:01;5.57;;;4.20;;
12425;SDS011;6277;49.824;9.562;2024-01-07T08:51:27;5.43;;;3.95;;
12425;SDS011;6277;49.824;9.562;2024-01-07T08:53:54;5.10;;;3.75;;
12425;SDS011;6277;49.824;9.562;2024-01-07T08:56:20;4.38;;;3.70;;
12425;SDS011;6277;49.824;9.562;2024-01-07T08:58:45;4.50;;;3.83;;
12425;SDS011;6277;49.824;9.562;2024-01-07T09:01:11;4.72;;;3.70;;
12425;SDS011;6277;49.824;9.562;2024-01-07T09:03:39;4.03;;;3.63;;
12425;SDS011;6277;49.824;9.562;2024-01-07T09:06:05;4.85;;;3.83;;
12425;SDS011;6277;49.824;9.562;2024-01-07T09:08:30;4.45;;;3.60;;
12425;SDS011;6277;49.824;9.562;2024-01-07T09:10:56;4.38;;;3.70;;
12425;SDS011;6277;49.824;9.562;2024-01-07T09:13:22;4.57;;;3.65;;
12425;SDS011;6277;49.824;9.562;2024-01-07T09:15:47;5.65;;;3.97;;
12425;SDS011;6277;49.824;9.562;2024-01-07T09:18:13;5.07;;;3.80;;
12425;SDS011;6277;49.824;9.562;2024-01-07T09:20:38;5.00;;;4.03;;
12425;SDS011;6277;49.824;9.562;2024-01-07T09:23:04;4.70;;;3.90;;
12425;SDS011;6277;49.824;9.562;2024-01-07T09:25:29;5.25;;;4.07;;
12425;SDS011;6277;49.824;9.562;2024-01-07T09:27:55;5.90;;;4.18;;
12425;SDS011;6277;49.824;9.562;2024-01-07T09:30:20;6.72;;;4.68;;
12425;SDS011;6277;49.824;9.562;2024-01-07T09:32:46;5.28;;;4.30;;
12425;SDS011;6277;49.824;9.562;2024-01-07T09:35:11;6.28;;;4.80;;
12425;SDS011;6277;49.824;9.562;2024-01-07T09:37:37;7.82;;;4.75;;
12425;SDS011;6277;49.824;9.562;2024-01-07T09:40:03;7.03;;;4.75;;
12425;SDS011;6277;49.824;9.562;2024-01-07T09:42:32;6.35;;;4.72;;
12425;SDS011;6277;49.824;9.562;2024-01-07T09:45:00;6.85;;;4.93;;
12425;SDS011;6277;49.824;9.562;2024-01-07T09:47:28;7.22;;;5.03;;
12425;SDS011;6277;49.824;9.562;2024-01-07T09:49:54;7.55;;;5.22;;
12425;SDS011;6277;49.824;9.562;2024-01-07T09:52:20;7.22;;;5.55;;
12425;SDS011;6277;49.824;9.562;2024-01-07T09:54:46;8.85;;;6.30;;
12425;SDS011;6277;49.824;9.562;2024-01-07T09:57:16;13.20;;;9.18;;
12425;SDS011;6277;49.824;9.562;2024-01-07T09:59:42;16.20;;;11.45;;
12425;SDS011;6277;49.824;9.562;2024-01-07T10:02:07;13.32;;;9.82;;
12425;SDS011;6277;49.824;9.562;2024-01-07T10:04:34;8.68;;;6.93;;
12425;SDS011;6277;49.824;9.562;2024-01-07T10:07:00;7.82;;;5.97;;
12425;SDS011;6277;49.824;9.562;2024-01-07T10:09:29;8.32;;;5.80;;
12425;SDS011;6277;49.824;9.562;2024-01-07T10:11:57;6.60;;;5.00;;
12425;SDS011;6277;49.824;9.562;2024-01-07T10:14:23;7.05;;;5.55;;
12425;SDS011;6277;49.824;9.562;2024-01-07T10:16:50;7.38;;;5.15;;
12425;SDS011;6277;49.824;9.562;2024-01-07T10:19:20;6.80;;;4.90;;
12425;SDS011;6277;49.824;9.562;2024-01-07T10:21:47;6.65;;;4.97;;
12425;SDS011;6277;49.824;9.562;2024-01-07T10:24:36;6.57;;;4.80;;
12425;SDS011;6277;49.824;9.562;2024-01-07T10:27:03;6.65;;;4.72;;
12425;SDS011;6277;49.824;9.562;2024-01-07T10:29:30;7.95;;;5.15;;
12425;SDS011;6277;49.824;9.562;2024-01-07T10:31:59;6.78;;;4.85;;
12425;SDS011;6277;49.824;9.562;2024-01-07T10:34:29;7.43;;;4.97;;
12425;SDS011;6277;49.824;9.562;2024-01-07T10:36:56;6.68;;;4.70;;
12425;SDS011;6277;49.824;9.562;2024-01-07T10:39:24;8.00;;;5.28;;
12425;SDS011;6277;49.824;9.562;2024-01-07T10:41:50;7.07;;;4.70;;
12425;SDS011;6277;49.824;9.562;2024-01-07T10:44:21;7.03;;;4.80;;
12425;SDS011;6277;49.824;9.562;2024-01-07T10:46:47;7.72;;;4.75;;
12425;SDS011;6277;49.824;9.562;2024-01-07T10:49:18;6.28;;;4.55;;
12425;SDS011;6277;49.824;9.562;2024-01-07T10:51:45;6.00;;;4.60;;
12425;SDS011;6277;49.824;9.562;2024-01-07T10:54:21;6.60;;;4.35;;
12425;SDS011;6277;49.824;9.562;2024-01-07T10:56:49;5.18;;;4.25;;
12425;SDS011;6277;49.824;9.562;2024-01-07T10:59:18;6.53;;;4.80;;
12425;SDS011;6277;49.824;9.562;2024-01-07T11:01:45;6.10;;;4.55;;
12425;SDS011;6277;49.824;9.562;2024-01-07T11:04:15;6.35;;;4.55;;
12425;SDS011;6277;49.824;9.562;2024-01-07T11:09:21;6.32;;;4.97;;
12425;SDS011;6277;49.824;9.562;2024-01-07T11:11:54;6.05;;;4.10;;
12425;SDS011;6277;49.824;9.562;2024-01-07T11:14:36;6.35;;;4.72;;
12425;SDS011;6277;49.824;9.562;2024-01-07T11:17:04;6.97;;;4.80;;
12425;SDS011;6277;49.824;9.562;2024-01-07T11:19:31;7.72;;;5.43;;
12425;SDS011;6277;49.824;9.562;2024-01-07T11:24:49;6.32;;;4.50;;
12425;SDS011;6277;49.824;9.562;2024-01-07T11:27:15;7.88;;;4.68;;
12425;SDS011;6277;49.824;9.562;2024-01-07T11:29:41;5.97;;;4.50;;
12425;SDS011;6277;49.824;9.562;2024-01-07T11:32:07;6.75;;;5.10;;
12425;SDS011;6277;49.824;9.562;2024-01-07T11:34:42;6.95;;;4.53;;
12425;SDS011;6277;49.824;9.562;2024-01-07T11:37:11;5.47;;;4.35;;
12425;SDS011;6277;49.824;9.562;2024-01-07T11:39:38;6.80;;;4.63;;
12425;SDS011;6277;49.824;9.562;2024-01-07T11:42:07;5.38;;;4.10;;
12425;SDS011;6277;49.824;9.562;2024-01-07T11:44:35;6.10;;;4.32;;
12425;SDS011;6277;49.824;9.562;2024-01-07T11:47:02;5.57;;;4.13;;
12425;SDS011;6277;49.824;9.562;2024-01-07T11:49:34;5.25;;;4.00;;
12425;SDS011;6277;49.824;9.562;2024-01-07T11:51:59;5.20;;;4.20;;
12425;SDS011;6277;49.824;9.562;2024-01-07T11:54:27;4.88;;;4.03;;
12425;SDS011;6277;49.824;9.562;2024-01-07T11:56:53;4.78;;;3.92;;
12425;SDS011;6277;49.824;9.562;2024-01-07T11:59:19;6.20;;;4.30;;
12425;SDS011;6277;49.824;9.562;2024-01-07T12:01:45;5.45;;;3.83;;
12425;SDS011;6277;49.824;9.562;2024-01-07T12:04:10;5.43;;;4.30;;
12425;SDS011;6277;49.824;9.562;2024-01-07T12:06:37;6.15;;;4.75;;
12425;SDS011;6277;49.824;9.562;2024-01-07T12:09:03;6.47;;;4.68;;
12425;SDS011;6277;49.824;9.562;2024-01-07T12:11:29;6.40;;;4.97;;
12425;SDS011;6277;49.824;9.562;2024-01-07T12:13:55;5.53;;;4.45;;
12425;SDS011;6277;49.824;9.562;2024-01-07T12:16:21;6.78;;;4.50;;
12425;SDS011;6277;49.824;9.562;2024-01-07T12:18:47;6.40;;;4.47;;
12425;SDS011;6277;49.824;9.562;2024-01-07T12:21:18;6.97;;;4.78;;
12425;SDS011;6277;49.824;9.562;2024-01-07T12:23:47;6.72;;;5.30;;
12425;SDS011;6277;49.824;9.562;2024-01-07T12:26:14;7.43;;;5.70;;
12425;SDS011;6277;49.824;9.562;2024-01-07T12:28:40;6.30;;;4.75;;
12425;SDS011;6277;49.824;9.562;2024-01-07T12:31:06;6.72;;;4.80;;
12425;SDS011;6277;49.824;9.562;2024-01-07T12:33:32;7.35;;;4.88;;
12425;SDS011;6277;49.824;9.562;2024-01-07T12:35:58;7.30;;;4.85;;
12425;SDS011;6277;49.824;9.562;2024-01-07T12:38:24;9.15;;;6.30;;
12425;SDS011;6277;49.824;9.562;2024-01-07T12:40:51;10.80;;;5.50;;
12425;SDS011;6277;49.824;9.562;2024-01-07T12:43:19;6.32;;;4.57;;
12425;SDS011;6277;49.824;9.562;2024-01-07T12:45:45;5.68;;;4.70;;
12425;SDS011;6277;49.824;9.562;2024-01-07T12:48:12;6.00;;;4.38;;
12425;SDS011;6277;49.824;9.562;2024-01-07T12:50:37;6.38;;;4.43;;
12425;SDS011;6277;49.824;9.562;2024-01-07T12:53:03;6.72;;;4.30;;
12425;SDS011;6277;49.824;9.562;2024-01-07T12:55:28;5.05;;;4.18;;
12425;SDS011;6277;49.824;9.562;2024-01-07T12:57:55;5.43;;;4.00;;
12425;SDS011;6277;49.824;9.562;2024-01-07T13:00:21;6.80;;;4.88;;
12425;SDS011;6277;49.824;9.562;2024-01-07T13:02:47;7.25;;;4.78;;
12425;SDS011;6277;49.824;9.562;2024-01-07T13:05:13;6.60;;;4.60;;
12425;SDS011;6277;49.824;9.562;2024-01-07T13:07:39;5.78;;;4.40;;
12425;SDS011;6277;49.824;9.562;2024-01-07T13:10:04;6.93;;;4.28;;
12425;SDS011;6277;49.824;9.562;2024-01-07T13:12:31;5.75;;;4.30;;
12425;SDS011;6277;49.824;9.562;2024-01-07T13:14:56;5.78;;;4.53;;
12425;SDS011;6277;49.824;9.562;2024-01-07T13:17:22;6.53;;;4.85;;
12425;SDS011;6277;49.824;9.562;2024-01-07T13:19:47;6.78;;;4.70;;
12425;SDS011;6277;49.824;9.562;2024-01-07T13:22:13;7.57;;;4.90;;
12425;SDS011;6277;49.824;9.562;2024-01-07T13:24:39;9.32;;;6.20;;
12425;SDS011;6277;49.824;9.562;2024-01-07T13:27:05;7.28;;;4.90;;
12425;SDS011;6277;49.824;9.562;2024-01-07T13:29:33;6.35;;;4.68;;
12425;SDS011;6277;49.824;9.562;2024-01-07T13:31:59;5.97;;;4.55;;
12425;SDS011;6277;49.824;9.562;2024-01-07T13:34:24;6.30;;;4.63;;
12425;SDS011;6277;49.824;9.562;2024-01-07T13:36:50;6.13;;;4.47;;
12425;SDS011;6277;49.824;9.562;2024-01-07T13:39:16;6.00;;;4.07;;
12425;SDS011;6277;49.824;9.562;2024-01-07T13:41:42;5.60;;;3.88;;
12425;SDS011;6277;49.824;9.562;2024-01-07T13:44:09;6.10;;;4.20;;
12425;SDS011;6277;49.824;9.562;2024-01-07T13:46:42;5.50;;;4.05;;
12425;SDS011;6277;49.824;9.562;2024-01-07T13:49:09;6.55;;;4.47;;
12425;SDS011;6277;49.824;9.562;2024-01-07T13:51:34;6.15;;;4.25;;
12425;SDS011;6277;49.824;9.562;2024-01-07T13:54:02;6.60;;;4.03;;
12425;SDS011;6277;49.824;9.562;2024-01-07T13:56:28;5.78;;;3.92;;
12425;SDS011;6277;49.824;9.562;2024-01-07T13:58:54;6.38;;;3.85;;
12425;SDS011;6277;49.824;9.562;2024-01-07T14:01:21;5.53;;;3.53;;
12425;SDS011;6277;49.824;9.562;2024-01-07T14:03:46;5.55;;;4.20;;
12425;SDS011;6277;49.824;9.562;2024-01-07T14:06:12;6.88;;;4.35;;
12425;SDS011;6277;49.824;9.562;2024-01-07T14:08:38;5.88;;;3.78;;
12425;SDS011;6277;49.824;9.562;2024-01-07T14:11:03;6.70;;;3.72;;
12425;SDS011;6277;49.824;9.562;2024-01-07T14:13:32;5.30;;;3.85;;
12425;SDS011;6277;49.824;9.562;2024-01-07T14:15:57;7.00;;;4.22;;
12425;SDS011;6277;49.824;9.562;2024-01-07T14:18:23;6.18;;;3.92;;
12425;SDS011;6277;49.824;9.562;2024-01-07T14:20:48;6.05;;;3.85;;
12425;SDS011;6277;49.824;9.562;2024-01-07T14:23:14;6.30;;;3.95;;
12425;SDS011;6277;49.824;9.562;2024-01-07T14:25:39;5.05;;;3.45;;
12425;SDS011;6277;49.824;9.562;2024-01-07T14:28:08;6.65;;;3.90;;
12425;SDS011;6277;49.824;9.562;2024-01-07T14:30:33;5.90;;;3.90;;
12425;SDS011;6277;49.824;9.562;2024-01-07T14:32:59;5.85;;;3.75;;
12425;SDS011;6277;49.824;9.562;2024-01-07T14:35:24;7.55;;;4.75;;
12425;SDS011;6277;49.824;9.562;2024-01-07T14:37:51;6.10;;;3.58;;
12425;SDS011;6277;49.824;9.562;2024-01-07T14:40:17;5.68;;;3.60;;
12425;SDS011;6277;49.824;9.562;2024-01-07T14:42:43;4.90;;;3.70;;
12425;SDS011;6277;49.824;9.562;2024-01-07T14:45:08;5.35;;;3.08;;
12425;SDS011;6277;49.824;9.562;2024-01-07T14:47:34;6.43;;;3.28;;
12425;SDS011;6277;49.824;9.562;2024-01-07T14:49:59;5.45;;;3.05;;
12425;SDS011;6277;49.824;9.562;2024-01-07T14:52:26;5.35;;;3.20;;
12425;SDS011;6277;49.824;9.562;2024-01-07T14:54:52;5.60;;;3.38;;
12425;SDS011;6277;49.824;9.562;2024-01-07T14:57:18;8.02;;;3.20;;
12425;SDS011;6277;49.824;9.562;2024-01-07T14:59:43;5.78;;;3.10;;